sensor_id;sensor_type;location;lat;lon;timestamp;temperature;humidity
19870;DHT22;10097;50.862;4.696;2023-03-01T00:01:28;1.20;99.90
19870;DHT22;10097;50.862;4.696;2023-03-01T00:03:55;1.20;99.90
19870;DHT22;10097;50.862;4.696;2023-03-01T00:06:21;1.10;99.90
19870;DHT22;10097;50.862;4.696;2023-03-01T00:08:50;1.10;99.90
19870;DHT22;10097;50.862;4.696;2023-03-01T00:11:25;1.10;99.90
19870;DHT22;10097;50.862;4.696;2023-03-01T00:13:53;1.10;99.90
19870;DHT22;10097;50.862;4.696;2023-03-01T00:16:23;1.10;99.90
19870;DHT22;10097;50.862;4.696;2023-03-01T00:18:48;1.20;99.90
19870;DHT22;10097;50.862;4.696;2023-03-01T00:21:14;1.10;99.90
19870;DHT22;10097;50.862;4.696;2023-03-01T00:23:42;1.10;99.90
19870;DHT22;10097;50.862;4.696;2023-03-01T00:26:11;1.10;99.90
19870;DHT22;10097;50.862;4.696;2023-03-01T00:28:37;1.10;99.90
19870;DHT22;10097;50.862;4.696;2023-03-01T00:31:08;1.10;99.90
19870;DHT22;10097;50.862;4.696;2023-03-01T00:33:37;1.00;99.90
19870;DHT22;10097;50.862;4.696;2023-03-01T00:36:03;1.00;99.90
19870;DHT22;10097;50.862;4.696;2023-03-01T00:38:29;1.10;99.90
19870;DHT22;10097;50.862;4.696;2023-03-01T00:40:54;1.10;99.90
19870;DHT22;10097;50.862;4.696;2023-03-01T00:43:20;1.20;99.90
19870;DHT22;10097;50.862;4.696;2023-03-01T00:45:46;1.30;99.90
19870;DHT22;10097;50.862;4.696;2023-03-01T00:48:13;1.30;99.90
19870;DHT22;10097;50.862;4.696;2023-03-01T00:50:38;1.20;99.90
19870;DHT22;10097;50.862;4.696;2023-03-01T00:53:04;1.20;99.90
19870;DHT22;10097;50.862;4.696;2023-03-01T00:55:31;1.20;99.90
19870;DHT22;10097;50.862;4.696;2023-03-01T00:57:57;1.20;99.90
19870;DHT22;10097;50.862;4.696;2023-03-01T01:00:23;1.10;99.90
19870;DHT22;10097;50.862;4.696;2023-03-01T01:02:48;1.20;99.90
19870;DHT22;10097;50.862;4.696;2023-03-01T01:05:14;1.10;99.90
19870;DHT22;10097;50.862;4.696;2023-03-01T01:07:40;1.10;99.90
19870;DHT22;10097;50.862;4.696;2023-03-01T01:10:06;1.10;99.90
19870;DHT22;10097;50.862;4.696;2023-03-01T01:12:32;1.10;99.90
19870;DHT22;10097;50.862;4.696;2023-03-01T01:14:58;1.10;99.90
19870;DHT22;10097;50.862;4.696;2023-03-01T01:17:24;1.10;99.90
19870;DHT22;10097;50.862;4.696;2023-03-01T01:19:50;1.10;99.90
19870;DHT22;10097;50.862;4.696;2023-03-01T01:22:15;1.10;99.90
19870;DHT22;10097;50.862;4.696;2023-03-01T01:24:41;1.00;99.90
19870;DHT22;10097;50.862;4.696;2023-03-01T01:27:07;1.00;99.90
19870;DHT22;10097;50.862;4.696;2023-03-01T01:29:33;1.00;99.90
19870;DHT22;10097;50.862;4.696;2023-03-01T01:31:58;1.00;99.90
19870;DHT22;10097;50.862;4.696;2023-03-01T01:34:24;0.90;99.90
19870;DHT22;10097;50.862;4.696;2023-03-01T01:36:52;0.90;99.90
19870;DHT22;10097;50.862;4.696;2023-03-01T01:39:21;0.80;99.90
19870;DHT22;10097;50.862;4.696;2023-03-01T01:41:47;0.80;99.90
19870;DHT22;10097;50.862;4.696;2023-03-01T01:49:27;0.70;99.90
19870;DHT22;10097;50.862;4.696;2023-03-01T01:52:00;0.60;99.90
19870;DHT22;10097;50.862;4.696;2023-03-01T01:57:09;0.60;99.90
19870;DHT22;10097;50.862;4.696;2023-03-01T01:59:36;0.50;99.90
19870;DHT22;10097;50.862;4.696;2023-03-01T02:02:03;0.50;99.90
19870;DHT22;10097;50.862;4.696;2023-03-01T02:04:31;0.40;99.90
19870;DHT22;10097;50.862;4.696;2023-03-01T02:09:27;0.30;99.90
19870;DHT22;10097;50.862;4.696;2023-03-01T02:11:53;0.20;99.90
19870;DHT22;10097;50.862;4.696;2023-03-01T02:14:19;0.20;99.90
19870;DHT22;10097;50.862;4.696;2023-03-01T02:16:45;0.20;99.90
19870;DHT22;10097;50.862;4.696;2023-03-01T02:22:23;0.20;99.90
19870;DHT22;10097;50.862;4.696;2023-03-01T02:27:40;0.20;99.90
19870;DHT22;10097;50.862;4.696;2023-03-01T02:30:11;0.10;99.90
19870;DHT22;10097;50.862;4.696;2023-03-01T02:32:39;0.10;99.90
19870;DHT22;10097;50.862;4.696;2023-03-01T02:35:09;0.10;99.90
19870;DHT22;10097;50.862;4.696;2023-03-01T02:37:36;0.10;99.90
19870;DHT22;10097;50.862;4.696;2023-03-01T02:40:06;0.10;99.90
19870;DHT22;10097;50.862;4.696;2023-03-01T02:42:43;0.00;99.90
19870;DHT22;10097;50.862;4.696;2023-03-01T02:45:11;0.00;99.90
19870;DHT22;10097;50.862;4.696;2023-03-01T02:47:36;-0.10;99.90
19870;DHT22;10097;50.862;4.696;2023-03-01T02:50:02;-0.10;99.90
19870;DHT22;10097;50.862;4.696;2023-03-01T02:52:47;-0.10;99.90
19870;DHT22;10097;50.862;4.696;2023-03-01T02:55:18;-0.10;99.90
19870;DHT22;10097;50.862;4.696;2023-03-01T02:57:45;-0.10;99.90
19870;DHT22;10097;50.862;4.696;2023-03-01T03:00:19;-0.20;99.90
19870;DHT22;10097;50.862;4.696;2023-03-01T03:02:51;-0.20;99.90
19870;DHT22;10097;50.862;4.696;2023-03-01T03:05:24;-0.20;99.90
19870;DHT22;10097;50.862;4.696;2023-03-01T03:07:50;-0.20;99.90
19870;DHT22;10097;50.862;4.696;2023-03-01T03:10:27;-0.20;99.90
19870;DHT22;10097;50.862;4.696;2023-03-01T03:12:59;-0.30;99.90
19870;DHT22;10097;50.862;4.696;2023-03-01T03:15:26;-0.40;99.90
19870;DHT22;10097;50.862;4.696;2023-03-01T03:17:53;-0.40;99.90
19870;DHT22;10097;50.862;4.696;2023-03-01T03:20:21;-0.40;99.90
19870;DHT22;10097;50.862;4.696;2023-03-01T03:22:48;-0.40;99.90
19870;DHT22;10097;50.862;4.696;2023-03-01T03:25:15;-0.40;99.90
19870;DHT22;10097;50.862;4.696;2023-03-01T03:27:43;-0.40;99.90
19870;DHT22;10097;50.862;4.696;2023-03-01T03:30:13;-0.30;99.90
19870;DHT22;10097;50.862;4.696;2023-03-01T03:32:43;-0.30;99.90
19870;DHT22;10097;50.862;4.696;2023-03-01T03:35:30;-0.30;99.90
19870;DHT22;10097;50.862;4.696;2023-03-01T03:37:57;-0.20;99.90
19870;DHT22;10097;50.862;4.696;2023-03-01T03:40:37;-0.20;99.90
19870;DHT22;10097;50.862;4.696;2023-03-01T03:43:09;-0.20;99.90
19870;DHT22;10097;50.862;4.696;2023-03-01T03:45:36;-0.20;99.90
19870;DHT22;10097;50.862;4.696;2023-03-01T03:48:04;-0.20;99.90
19870;DHT22;10097;50.862;4.696;2023-03-01T03:50:31;-0.20;99.90
19870;DHT22;10097;50.862;4.696;2023-03-01T03:52:57;-0.30;99.90
19870;DHT22;10097;50.862;4.696;2023-03-01T03:55:23;-0.30;99.90
19870;DHT22;10097;50.862;4.696;2023-03-01T03:57:53;-0.30;99.90
19870;DHT22;10097;50.862;4.696;2023-03-01T04:00:21;-0.40;99.90
19870;DHT22;10097;50.862;4.696;2023-03-01T04:02:48;-0.50;99.90
19870;DHT22;10097;50.862;4.696;2023-03-01T04:05:15;-0.50;99.90
19870;DHT22;10097;50.862;4.696;2023-03-01T04:07:42;-0.50;99.90
19870;DHT22;10097;50.862;4.696;2023-03-01T04:10:16;-0.50;99.90
19870;DHT22;10097;50.862;4.696;2023-03-01T04:12:43;-0.50;99.90
19870;DHT22;10097;50.862;4.696;2023-03-01T04:15:10;-0.50;99.90
19870;DHT22;10097;50.862;4.696;2023-03-01T04:17:43;-0.50;99.90
19870;DHT22;10097;50.862;4.696;2023-03-01T04:20:10;-0.50;99.90
19870;DHT22;10097;50.862;4.696;2023-03-01T04:22:37;-0.50;99.90
19870;DHT22;10097;50.862;4.696;2023-03-01T04:25:03;-0.50;99.90
19870;DHT22;10097;50.862;4.696;2023-03-01T04:27:30;-0.40;99.90
19870;DHT22;10097;50.862;4.696;2023-03-01T04:29:55;-0.40;99.90
19870;DHT22;10097;50.862;4.696;2023-03-01T04:32:21;-0.50;99.90
19870;DHT22;10097;50.862;4.696;2023-03-01T04:34:47;-0.40;99.90
19870;DHT22;10097;50.862;4.696;2023-03-01T04:37:12;-0.40;99.90
19870;DHT22;10097;50.862;4.696;2023-03-01T04:39:38;-0.50;99.90
19870;DHT22;10097;50.862;4.696;2023-03-01T04:42:11;-0.50;99.90
19870;DHT22;10097;50.862;4.696;2023-03-01T04:44:37;-0.50;99.90
19870;DHT22;10097;50.862;4.696;2023-03-01T04:47:03;-0.60;99.90
19870;DHT22;10097;50.862;4.696;2023-03-01T04:49:29;-0.60;99.90
19870;DHT22;10097;50.862;4.696;2023-03-01T04:51:54;-0.70;99.90
19870;DHT22;10097;50.862;4.696;2023-03-01T04:54:20;-0.70;99.90
19870;DHT22;10097;50.862;4.696;2023-03-01T04:56:46;-0.70;99.90
19870;DHT22;10097;50.862;4.696;2023-03-01T04:59:11;-0.70;99.90
19870;DHT22;10097;50.862;4.696;2023-03-01T05:01:39;-0.80;99.90
19870;DHT22;10097;50.862;4.696;2023-03-01T05:04:04;-0.80;99.90
19870;DHT22;10097;50.862;4.696;2023-03-01T05:06:30;-0.80;99.90
19870;DHT22;10097;50.862;4.696;2023-03-01T05:08:56;-0.80;99.90
19870;DHT22;10097;50.862;4.696;2023-03-01T05:11:22;-0.80;99.90
19870;DHT22;10097;50.862;4.696;2023-03-01T05:13:48;-0.70;99.90
19870;DHT22;10097;50.862;4.696;2023-03-01T05:16:15;-0.70;99.90
19870;DHT22;10097;50.862;4.696;2023-03-01T05:18:42;-0.70;99.90
19870;DHT22;10097;50.862;4.696;2023-03-01T05:21:10;-0.70;99.90
19870;DHT22;10097;50.862;4.696;2023-03-01T05:23:37;-0.80;99.90
19870;DHT22;10097;50.862;4.696;2023-03-01T05:26:04;-0.90;99.90
19870;DHT22;10097;50.862;4.696;2023-03-01T05:28:31;-0.90;99.90
19870;DHT22;10097;50.862;4.696;2023-03-01T05:30:58;-0.90;99.90
19870;DHT22;10097;50.862;4.696;2023-03-01T05:33:24;-0.90;99.90
19870;DHT22;10097;50.862;4.696;2023-03-01T05:35:50;-0.90;99.90
19870;DHT22;10097;50.862;4.696;2023-03-01T05:38:17;-1.00;99.90
19870;DHT22;10097;50.862;4.696;2023-03-01T05:40:47;-1.00;99.90
19870;DHT22;10097;50.862;4.696;2023-03-01T05:43:14;-1.00;99.90
19870;DHT22;10097;50.862;4.696;2023-03-01T05:45:40;-1.00;99.90
19870;DHT22;10097;50.862;4.696;2023-03-01T05:48:08;-1.00;99.90
19870;DHT22;10097;50.862;4.696;2023-03-01T05:50:36;-1.00;99.90
19870;DHT22;10097;50.862;4.696;2023-03-01T05:53:09;-1.00;99.90
19870;DHT22;10097;50.862;4.696;2023-03-01T05:55:36;-1.00;99.90
19870;DHT22;10097;50.862;4.696;2023-03-01T05:58:05;-1.10;99.90
19870;DHT22;10097;50.862;4.696;2023-03-01T06:00:32;-1.20;99.90
19870;DHT22;10097;50.862;4.696;2023-03-01T06:02:59;-1.10;99.90
19870;DHT22;10097;50.862;4.696;2023-03-01T06:05:25;-1.20;99.90
19870;DHT22;10097;50.862;4.696;2023-03-01T06:07:52;-1.20;99.90
19870;DHT22;10097;50.862;4.696;2023-03-01T06:10:19;-1.20;99.90
19870;DHT22;10097;50.862;4.696;2023-03-01T06:12:45;-1.20;99.90
19870;DHT22;10097;50.862;4.696;2023-03-01T06:15:12;-1.10;99.90
19870;DHT22;10097;50.862;4.696;2023-03-01T06:17:40;-1.10;99.90
19870;DHT22;10097;50.862;4.696;2023-03-01T06:22:37;-1.10;99.90
19870;DHT22;10097;50.862;4.696;2023-03-01T06:25:04;-1.10;99.90
19870;DHT22;10097;50.862;4.696;2023-03-01T06:27:30;-1.10;99.90
19870;DHT22;10097;50.862;4.696;2023-03-01T06:29:56;-1.00;99.90
19870;DHT22;10097;50.862;4.696;2023-03-01T06:32:22;-1.00;99.90
19870;DHT22;10097;50.862;4.696;2023-03-01T06:34:47;-1.00;99.90
19870;DHT22;10097;50.862;4.696;2023-03-01T06:37:13;-1.00;99.90
19870;DHT22;10097;50.862;4.696;2023-03-01T06:39:38;-1.00;99.90
19870;DHT22;10097;50.862;4.696;2023-03-01T06:42:04;-1.00;99.90
19870;DHT22;10097;50.862;4.696;2023-03-01T06:44:30;-1.00;99.90
19870;DHT22;10097;50.862;4.696;2023-03-01T06:46:56;-1.00;99.90
19870;DHT22;10097;50.862;4.696;2023-03-01T06:49:22;-0.90;99.90
19870;DHT22;10097;50.862;4.696;2023-03-01T06:51:48;-0.90;99.90
19870;DHT22;10097;50.862;4.696;2023-03-01T06:54:13;-0.90;99.90
19870;DHT22;10097;50.862;4.696;2023-03-01T06:56:39;-0.80;99.90
19870;DHT22;10097;50.862;4.696;2023-03-01T06:59:05;-0.80;99.90
19870;DHT22;10097;50.862;4.696;2023-03-01T07:01:30;-0.70;99.90
19870;DHT22;10097;50.862;4.696;2023-03-01T07:03:56;-0.70;99.90
19870;DHT22;10097;50.862;4.696;2023-03-01T07:06:22;-0.60;99.90
19870;DHT22;10097;50.862;4.696;2023-03-01T07:08:48;-0.60;99.90
19870;DHT22;10097;50.862;4.696;2023-03-01T07:11:15;-0.60;99.90
19870;DHT22;10097;50.862;4.696;2023-03-01T07:13:40;-0.50;99.90
19870;DHT22;10097;50.862;4.696;2023-03-01T07:16:06;-0.60;99.90
19870;DHT22;10097;50.862;4.696;2023-03-01T07:18:32;-0.50;99.90
19870;DHT22;10097;50.862;4.696;2023-03-01T07:20:58;-0.70;99.90
19870;DHT22;10097;50.862;4.696;2023-03-01T07:23:23;-0.70;99.90
19870;DHT22;10097;50.862;4.696;2023-03-01T07:25:55;-0.60;99.90
19870;DHT22;10097;50.862;4.696;2023-03-01T07:28:24;-0.50;99.90
19870;DHT22;10097;50.862;4.696;2023-03-01T07:30:50;-0.40;99.90
19870;DHT22;10097;50.862;4.696;2023-03-01T07:33:16;-0.40;99.90
19870;DHT22;10097;50.862;4.696;2023-03-01T07:35:42;-0.30;99.90
19870;DHT22;10097;50.862;4.696;2023-03-01T07:38:08;-0.30;99.90
19870;DHT22;10097;50.862;4.696;2023-03-01T07:40:35;-0.30;99.90
19870;DHT22;10097;50.862;4.696;2023-03-01T07:43:00;-0.30;99.90
19870;DHT22;10097;50.862;4.696;2023-03-01T07:45:27;-0.20;99.90
19870;DHT22;10097;50.862;4.696;2023-03-01T07:47:54;-0.20;99.90
19870;DHT22;10097;50.862;4.696;2023-03-01T07:50:20;-0.10;99.90
19870;DHT22;10097;50.862;4.696;2023-03-01T07:52:47;-0.10;99.90
19870;DHT22;10097;50.862;4.696;2023-03-01T07:55:14;0.00;99.90
19870;DHT22;10097;50.862;4.696;2023-03-01T07:57:40;0.00;99.90
19870;DHT22;10097;50.862;4.696;2023-03-01T08:00:07;0.00;99.90
19870;DHT22;10097;50.862;4.696;2023-03-01T08:02:32;0.20;99.90
19870;DHT22;10097;50.862;4.696;2023-03-01T08:04:58;0.30;99.90
19870;DHT22;10097;50.862;4.696;2023-03-01T08:07:26;0.40;99.90
19870;DHT22;10097;50.862;4.696;2023-03-01T08:09:51;0.40;99.90
19870;DHT22;10097;50.862;4.696;2023-03-01T08:12:18;0.50;99.90
19870;DHT22;10097;50.862;4.696;2023-03-01T08:14:44;0.50;99.90
19870;DHT22;10097;50.862;4.696;2023-03-01T08:17:09;0.60;99.90
19870;DHT22;10097;50.862;4.696;2023-03-01T08:19:35;0.60;99.90
19870;DHT22;10097;50.862;4.696;2023-03-01T08:22:04;0.70;99.90
19870;DHT22;10097;50.862;4.696;2023-03-01T08:24:29;0.90;99.90
19870;DHT22;10097;50.862;4.696;2023-03-01T08:26:55;0.90;99.90
19870;DHT22;10097;50.862;4.696;2023-03-01T08:29:21;1.00;99.90
19870;DHT22;10097;50.862;4.696;2023-03-01T08:31:47;1.00;99.90
19870;DHT22;10097;50.862;4.696;2023-03-01T08:34:16;1.00;99.90
19870;DHT22;10097;50.862;4.696;2023-03-01T08:36:44;1.00;99.90
19870;DHT22;10097;50.862;4.696;2023-03-01T08:39:13;1.10;99.90
19870;DHT22;10097;50.862;4.696;2023-03-01T08:41:39;1.10;99.90
19870;DHT22;10097;50.862;4.696;2023-03-01T08:44:05;1.20;99.90
19870;DHT22;10097;50.862;4.696;2023-03-01T08:46:36;1.10;99.90
19870;DHT22;10097;50.862;4.696;2023-03-01T08:49:15;1.10;99.90
19870;DHT22;10097;50.862;4.696;2023-03-01T08:51:41;1.20;99.90
19870;DHT22;10097;50.862;4.696;2023-03-01T08:54:11;1.30;99.90
19870;DHT22;10097;50.862;4.696;2023-03-01T08:56:37;1.50;99.90
19870;DHT22;10097;50.862;4.696;2023-03-01T08:59:06;1.60;99.90
19870;DHT22;10097;50.862;4.696;2023-03-01T09:01:32;1.70;99.90
19870;DHT22;10097;50.862;4.696;2023-03-01T09:03:58;1.70;99.90
19870;DHT22;10097;50.862;4.696;2023-03-01T09:06:24;1.70;99.90
19870;DHT22;10097;50.862;4.696;2023-03-01T09:08:50;1.70;99.90
19870;DHT22;10097;50.862;4.696;2023-03-01T09:11:18;1.80;99.90
19870;DHT22;10097;50.862;4.696;2023-03-01T09:13:45;1.90;99.90
19870;DHT22;10097;50.862;4.696;2023-03-01T09:16:13;2.00;99.90
19870;DHT22;10097;50.862;4.696;2023-03-01T09:18:39;2.00;99.90
19870;DHT22;10097;50.862;4.696;2023-03-01T09:21:16;2.00;99.90
19870;DHT22;10097;50.862;4.696;2023-03-01T09:23:43;2.10;99.90
19870;DHT22;10097;50.862;4.696;2023-03-01T09:26:12;2.20;99.90
19870;DHT22;10097;50.862;4.696;2023-03-01T09:28:38;2.30;99.90
19870;DHT22;10097;50.862;4.696;2023-03-01T09:31:04;2.50;99.90
19870;DHT22;10097;50.862;4.696;2023-03-01T09:33:31;2.70;99.90
19870;DHT22;10097;50.862;4.696;2023-03-01T09:35:58;2.70;99.90
19870;DHT22;10097;50.862;4.696;2023-03-01T09:38:24;2.70;99.90
19870;DHT22;10097;50.862;4.696;2023-03-01T09:40:49;2.70;99.90
19870;DHT22;10097;50.862;4.696;2023-03-01T09:43:18;2.80;99.90
19870;DHT22;10097;50.862;4.696;2023-03-01T09:45:49;2.90;99.90
19870;DHT22;10097;50.862;4.696;2023-03-01T09:48:19;3.00;99.90
19870;DHT22;10097;50.862;4.696;2023-03-01T09:50:47;3.00;99.90
19870;DHT22;10097;50.862;4.696;2023-03-01T09:55:48;3.10;99.90
19870;DHT22;10097;50.862;4.696;2023-03-01T10:06:24;3.20;99.90
19870;DHT22;10097;50.862;4.696;2023-03-01T10:09:04;3.30;99.90
19870;DHT22;10097;50.862;4.696;2023-03-01T10:11:41;3.50;99.90
19870;DHT22;10097;50.862;4.696;2023-03-01T10:17:04;3.60;99.90
19870;DHT22;10097;50.862;4.696;2023-03-01T10:19:41;3.60;99.90
19870;DHT22;10097;50.862;4.696;2023-03-01T10:24:48;3.70;99.90
19870;DHT22;10097;50.862;4.696;2023-03-01T10:27:26;3.90;99.90
19870;DHT22;10097;50.862;4.696;2023-03-01T10:32:41;4.20;99.90
19870;DHT22;10097;50.862;4.696;2023-03-01T10:38:09;4.40;99.90
19870;DHT22;10097;50.862;4.696;2023-03-01T10:40:36;4.70;99.90
19870;DHT22;10097;50.862;4.696;2023-03-01T10:43:14;4.80;99.90
19870;DHT22;10097;50.862;4.696;2023-03-01T10:45:40;4.80;99.90
19870;DHT22;10097;50.862;4.696;2023-03-01T10:48:17;4.80;99.90
19870;DHT22;10097;50.862;4.696;2023-03-01T10:51:12;4.80;99.90
19870;DHT22;10097;50.862;4.696;2023-03-01T10:53:42;4.90;99.90
19870;DHT22;10097;50.862;4.696;2023-03-01T10:56:11;4.90;99.90
19870;DHT22;10097;50.862;4.696;2023-03-01T10:58:40;4.90;99.90
19870;DHT22;10097;50.862;4.696;2023-03-01T11:03:41;5.10;99.90
19870;DHT22;10097;50.862;4.696;2023-03-01T11:08:41;5.50;99.90
19870;DHT22;10097;50.862;4.696;2023-03-01T11:11:33;5.60;99.90
19870;DHT22;10097;50.862;4.696;2023-03-01T11:17:05;5.90;99.90
19870;DHT22;10097;50.862;4.696;2023-03-01T11:19:32;6.00;99.90
19870;DHT22;10097;50.862;4.696;2023-03-01T11:22:08;6.10;99.90
19870;DHT22;10097;50.862;4.696;2023-03-01T11:24:41;6.10;99.90
19870;DHT22;10097;50.862;4.696;2023-03-01T11:27:26;6.00;99.90
19870;DHT22;10097;50.862;4.696;2023-03-01T11:32:27;6.10;99.90
19870;DHT22;10097;50.862;4.696;2023-03-01T11:35:10;6.10;99.90
19870;DHT22;10097;50.862;4.696;2023-03-01T11:40:33;6.10;99.90
19870;DHT22;10097;50.862;4.696;2023-03-01T11:45:56;6.20;99.90
19870;DHT22;10097;50.862;4.696;2023-03-01T11:48:35;6.40;99.90
19870;DHT22;10097;50.862;4.696;2023-03-01T11:51:11;6.70;99.90
19870;DHT22;10097;50.862;4.696;2023-03-01T11:56:28;7.10;99.90
19870;DHT22;10097;50.862;4.696;2023-03-01T12:04:18;7.30;99.90
19870;DHT22;10097;50.862;4.696;2023-03-01T12:06:59;7.50;99.90
19870;DHT22;10097;50.862;4.696;2023-03-01T12:25:28;8.20;99.90
19870;DHT22;10097;50.862;4.696;2023-03-01T12:34:01;8.30;99.90
19870;DHT22;10097;50.862;4.696;2023-03-01T12:42:44;8.70;99.90
19870;DHT22;10097;50.862;4.696;2023-03-01T12:45:31;8.80;99.90
19870;DHT22;10097;50.862;4.696;2023-03-01T12:48:14;8.90;99.90
19870;DHT22;10097;50.862;4.696;2023-03-01T12:50:51;9.20;99.90
19870;DHT22;10097;50.862;4.696;2023-03-01T12:53:23;9.30;99.90
19870;DHT22;10097;50.862;4.696;2023-03-01T12:55:52;9.20;99.90
19870;DHT22;10097;50.862;4.696;2023-03-01T13:01:42;9.40;99.90
19870;DHT22;10097;50.862;4.696;2023-03-01T13:07:15;9.70;99.90
19870;DHT22;10097;50.862;4.696;2023-03-01T13:13:01;9.90;99.90
19870;DHT22;10097;50.862;4.696;2023-03-01T13:15:35;9.40;99.90
19870;DHT22;10097;50.862;4.696;2023-03-01T13:28:41;10.40;99.90
19870;DHT22;10097;50.862;4.696;2023-03-01T13:46:45;11.10;99.90
19870;DHT22;10097;50.862;4.696;2023-03-01T13:49:16;10.70;99.90
19870;DHT22;10097;50.862;4.696;2023-03-01T13:51:50;10.40;99.90
19870;DHT22;10097;50.862;4.696;2023-03-01T13:54:29;10.70;99.90
19870;DHT22;10097;50.862;4.696;2023-03-01T13:56:58;10.80;99.90
19870;DHT22;10097;50.862;4.696;2023-03-01T13:59:24;10.70;99.90
19870;DHT22;10097;50.862;4.696;2023-03-01T14:01:59;10.70;99.90
19870;DHT22;10097;50.862;4.696;2023-03-01T14:04:31;11.00;99.90
19870;DHT22;10097;50.862;4.696;2023-03-01T14:07:20;11.00;99.90
19870;DHT22;10097;50.862;4.696;2023-03-01T14:09:55;10.80;99.90
19870;DHT22;10097;50.862;4.696;2023-03-01T14:15:15;11.30;99.90
19870;DHT22;10097;50.862;4.696;2023-03-01T14:18:08;11.30;99.90
19870;DHT22;10097;50.862;4.696;2023-03-01T14:20:43;10.70;99.90
19870;DHT22;10097;50.862;4.696;2023-03-01T14:23:19;10.70;99.90
19870;DHT22;10097;50.862;4.696;2023-03-01T14:25:51;10.90;99.90
19870;DHT22;10097;50.862;4.696;2023-03-01T14:28:26;11.30;99.90
19870;DHT22;10097;50.862;4.696;2023-03-01T14:30:58;11.30;99.90
19870;DHT22;10097;50.862;4.696;2023-03-01T14:33:25;11.20;99.90
19870;DHT22;10097;50.862;4.696;2023-03-01T14:35:59;11.20;99.90
19870;DHT22;10097;50.862;4.696;2023-03-01T14:38:41;11.30;99.90
19870;DHT22;10097;50.862;4.696;2023-03-01T14:41:24;11.40;99.90
19870;DHT22;10097;50.862;4.696;2023-03-01T14:43:53;11.20;99.90
19870;DHT22;10097;50.862;4.696;2023-03-01T14:48:53;10.70;99.90
19870;DHT22;10097;50.862;4.696;2023-03-01T14:51:20;10.70;99.90
19870;DHT22;10097;50.862;4.696;2023-03-01T14:53:46;10.50;99.90
19870;DHT22;10097;50.862;4.696;2023-03-01T14:56:13;10.90;99.90
19870;DHT22;10097;50.862;4.696;2023-03-01T14:58:39;11.30;99.90
19870;DHT22;10097;50.862;4.696;2023-03-01T15:01:05;11.40;99.90
19870;DHT22;10097;50.862;4.696;2023-03-01T15:03:51;11.40;99.90
19870;DHT22;10097;50.862;4.696;2023-03-01T15:06:20;11.40;99.90
19870;DHT22;10097;50.862;4.696;2023-03-01T15:08:49;11.00;99.90
19870;DHT22;10097;50.862;4.696;2023-03-01T15:11:32;10.90;99.90
19870;DHT22;10097;50.862;4.696;2023-03-01T15:13:58;11.20;99.90
19870;DHT22;10097;50.862;4.696;2023-03-01T15:16:29;11.30;99.90
19870;DHT22;10097;50.862;4.696;2023-03-01T15:19:01;11.20;99.90
19870;DHT22;10097;50.862;4.696;2023-03-01T15:21:35;10.70;99.90
19870;DHT22;10097;50.862;4.696;2023-03-01T15:26:55;10.70;99.90
19870;DHT22;10097;50.862;4.696;2023-03-01T15:29:28;10.70;99.90
19870;DHT22;10097;50.862;4.696;2023-03-01T15:31:59;10.70;99.90
19870;DHT22;10097;50.862;4.696;2023-03-01T15:34:37;11.00;99.90
19870;DHT22;10097;50.862;4.696;2023-03-01T15:37:06;11.10;99.90
19870;DHT22;10097;50.862;4.696;2023-03-01T15:39:57;11.00;99.90
19870;DHT22;10097;50.862;4.696;2023-03-01T15:48:14;10.00;99.90
19870;DHT22;10097;50.862;4.696;2023-03-01T15:50:42;10.30;99.90
19870;DHT22;10097;50.862;4.696;2023-03-01T15:53:13;10.40;99.90
19870;DHT22;10097;50.862;4.696;2023-03-01T15:55:40;10.20;99.90
19870;DHT22;10097;50.862;4.696;2023-03-01T15:58:12;10.10;99.90
19870;DHT22;10097;50.862;4.696;2023-03-01T16:00:38;9.70;99.90
19870;DHT22;10097;50.862;4.696;2023-03-01T16:03:05;9.70;99.90
19870;DHT22;10097;50.862;4.696;2023-03-01T16:05:33;9.70;99.90
19870;DHT22;10097;50.862;4.696;2023-03-01T16:08:00;9.60;99.90
19870;DHT22;10097;50.862;4.696;2023-03-01T16:10:26;9.40;99.90
19870;DHT22;10097;50.862;4.696;2023-03-01T16:12:53;9.30;99.90
19870;DHT22;10097;50.862;4.696;2023-03-01T16:15:26;9.40;99.90
19870;DHT22;10097;50.862;4.696;2023-03-01T16:17:52;9.40;99.90
19870;DHT22;10097;50.862;4.696;2023-03-01T16:20:18;9.30;99.90
19870;DHT22;10097;50.862;4.696;2023-03-01T16:22:45;9.10;99.90
19870;DHT22;10097;50.862;4.696;2023-03-01T16:25:13;9.10;99.90
19870;DHT22;10097;50.862;4.696;2023-03-01T16:27:42;9.00;99.90
19870;DHT22;10097;50.862;4.696;2023-03-01T16:30:09;8.70;99.90
19870;DHT22;10097;50.862;4.696;2023-03-01T16:32:39;8.30;99.90
19870;DHT22;10097;50.862;4.696;2023-03-01T16:35:06;8.10;99.90
19870;DHT22;10097;50.862;4.696;2023-03-01T16:37:34;8.10;99.90
19870;DHT22;10097;50.862;4.696;2023-03-01T16:39:59;7.90;99.90
19870;DHT22;10097;50.862;4.696;2023-03-01T16:42:25;7.80;99.90
19870;DHT22;10097;50.862;4.696;2023-03-01T16:44:55;7.70;99.90
19870;DHT22;10097;50.862;4.696;2023-03-01T16:47:21;7.70;99.90
19870;DHT22;10097;50.862;4.696;2023-03-01T16:49:52;7.70;99.90
19870;DHT22;10097;50.862;4.696;2023-03-01T16:52:18;7.70;99.90
19870;DHT22;10097;50.862;4.696;2023-03-01T16:54:43;7.70;99.90
19870;DHT22;10097;50.862;4.696;2023-03-01T16:57:09;7.70;99.90
19870;DHT22;10097;50.862;4.696;2023-03-01T16:59:35;7.60;99.90
19870;DHT22;10097;50.862;4.696;2023-03-01T17:02:01;7.50;99.90
19870;DHT22;10097;50.862;4.696;2023-03-01T17:04:27;7.50;99.90
19870;DHT22;10097;50.862;4.696;2023-03-01T17:06:53;7.40;99.90
19870;DHT22;10097;50.862;4.696;2023-03-01T17:09:18;7.20;99.90
19870;DHT22;10097;50.862;4.696;2023-03-01T17:11:48;7.10;99.90
19870;DHT22;10097;50.862;4.696;2023-03-01T17:14:13;7.00;99.90
19870;DHT22;10097;50.862;4.696;2023-03-01T17:16:40;6.80;99.90
19870;DHT22;10097;50.862;4.696;2023-03-01T17:19:06;6.80;99.90
19870;DHT22;10097;50.862;4.696;2023-03-01T17:21:32;6.80;99.90
19870;DHT22;10097;50.862;4.696;2023-03-01T17:23:58;6.80;99.90
19870;DHT22;10097;50.862;4.696;2023-03-01T17:26:24;6.70;99.90
19870;DHT22;10097;50.862;4.696;2023-03-01T17:28:49;6.60;99.90
19870;DHT22;10097;50.862;4.696;2023-03-01T17:31:17;6.60;99.90
19870;DHT22;10097;50.862;4.696;2023-03-01T17:33:43;6.60;99.90
19870;DHT22;10097;50.862;4.696;2023-03-01T17:36:09;6.50;99.90
19870;DHT22;10097;50.862;4.696;2023-03-01T17:38:35;6.50;99.90
19870;DHT22;10097;50.862;4.696;2023-03-01T17:41:03;6.30;99.90
19870;DHT22;10097;50.862;4.696;2023-03-01T17:43:30;6.30;99.90
19870;DHT22;10097;50.862;4.696;2023-03-01T17:45:56;6.20;99.90
19870;DHT22;10097;50.862;4.696;2023-03-01T17:48:22;6.20;99.90
19870;DHT22;10097;50.862;4.696;2023-03-01T17:50:48;6.10;99.90
19870;DHT22;10097;50.862;4.696;2023-03-01T17:53:14;6.20;99.90
19870;DHT22;10097;50.862;4.696;2023-03-01T17:55:41;6.10;99.90
19870;DHT22;10097;50.862;4.696;2023-03-01T17:58:09;6.20;99.90
19870;DHT22;10097;50.862;4.696;2023-03-01T18:00:35;6.20;99.90
19870;DHT22;10097;50.862;4.696;2023-03-01T18:03:02;6.20;99.90
19870;DHT22;10097;50.862;4.696;2023-03-01T18:05:33;6.10;99.90
19870;DHT22;10097;50.862;4.696;2023-03-01T18:07:59;6.00;99.90
19870;DHT22;10097;50.862;4.696;2023-03-01T18:10:25;6.00;99.90
19870;DHT22;10097;50.862;4.696;2023-03-01T18:12:51;6.00;99.90